Time;durP1;ratioP1;P1;durP2;ratioP2;P2;SDS_P1;SDS_P2;PMS_P1;PMS_P2;Temp;Humidity;BMP_temperature;BMP_pressure;BME280_temperature;BME280_humidity;BME280_pressure;Samples;Min_cycle;Max_cycle;Signal;HPM_P1;HPM_P2
2024/03/22 00:00:21;;;;;;;32.85;20.00;;;9.80;99.90;;;;;;5072018;28;20090;-71
2024/03/22 00:02:47;;;;;;;35.25;21.13;;;9.80;99.90;;;;;;5070637;28;20086;-71
2024/03/22 00:05:12;;;;;;;33.67;21.17;;;9.90;99.90;;;;;;5071940;28;20535;-71
2024/03/22 00:07:38;;;;;;;33.47;20.08;;;9.80;99.90;;;;;;5071508;28;20072;-71
2024/03/22 00:10:05;;;;;;;33.95;21.98;;;9.80;99.90;;;;;;5071547;28;20044;-71
2024/03/22 00:12:31;;;;;;;34.60;21.52;;;9.90;99.90;;;;;;5071426;28;20067;-71
2024/03/22 00:14:57;;;;;;;33.55;21.15;;;9.90;99.90;;;;;;5072112;28;20496;-71
2024/03/22 00:17:22;;;;;;;36.50;22.83;;;9.90;99.90;;;;;;5072008;28;20496;-71
2024/03/22 00:19:48;;;;;;;36.17;21.35;;;9.90;99.90;;;;;;5071552;28;20044;-71
2024/03/22 00:22:15;;;;;;;35.75;22.25;;;9.90;99.90;;;;;;5071452;28;20437;-72
2024/03/22 00:24:41;;;;;;;39.20;21.60;;;9.90;99.90;;;;;;5053608;28;20064;-72
2024/03/22 00:27:06;;;;;;;33.22;21.85;;;9.90;99.90;;;;;;5071625;28;20079;-71
2024/03/22 00:29:32;;;;;;;37.97;22.13;;;9.90;99.90;;;;;;5071548;28;20045;-72
2024/03/22 00:31:57;;;;;;;39.45;21.45;;;9.90;99.90;;;;;;5071190;28;20040;-71
2024/03/22 00:34:23;;;;;;;38.97;22.90;;;10.00;99.90;;;;;;5053517;28;20044;-71
2024/03/22 00:36:50;;;;;;;35.13;22.23;;;9.90;99.90;;;;;;5071676;28;20047;-71
2024/03/22 00:39:16;;;;;;;38.40;23.13;;;9.90;99.90;;;;;;5053356;28;20044;-71
2024/03/22 00:41:42;;;;;;;36.53;22.83;;;9.90;99.90;;;;;;5071663;28;20040;-71
2024/03/22 00:44:07;;;;;;;41.92;24.52;;;10.00;99.90;;;;;;5052916;28;20128;-71
2024/03/22 00:46:33;;;;;;;35.78;22.77;;;10.00;99.90;;;;;;5071451;28;20032;-71
2024/03/22 00:48:59;;;;;;;42.47;24.85;;;10.00;99.90;;;;;;5053332;28;20411;-71
2024/03/22 00:51:26;;;;;;;40.97;23.70;;;10.00;99.90;;;;;;5070800;28;20179;-73
2024/03/22 00:53:52;;;;;;;45.40;23.85;;;10.00;99.90;;;;;;5053077;28;20051;-71
2024/03/22 00:56:18;;;;;;;41.17;22.80;;;10.10;99.90;;;;;;5071311;28;20540;-71
2024/03/22 00:58:43;;;;;;;40.08;24.17;;;10.00;99.90;;;;;;5071551;28;20044;-71
2024/03/22 01:01:09;;;;;;;40.35;23.35;;;10.00;99.90;;;;;;5071024;28;20098;-71
2024/03/22 01:03:35;;;;;;;46.30;25.63;;;10.10;99.90;;;;;;5070410;28;20504;-71
2024/03/22 01:06:01;;;;;;;40.28;24.02;;;10.10;99.90;;;;;;5053219;28;20071;-72
2024/03/22 01:08:27;;;;;;;42.50;25.27;;;10.10;99.90;;;;;;5053256;28;20563;-71
2024/03/22 01:10:53;;;;;;;47.70;26.75;;;10.10;99.90;;;;;;5071252;28;20052;-71
2024/03/22 01:13:19;;;;;;;42.22;25.80;;;10.10;99.90;;;;;;5070792;28;20120;-71
2024/03/22 01:15:46;;;;;;;46.67;25.33;;;10.10;99.90;;;;;;5071198;28;20119;-71
2024/03/22 01:18:11;;;;;;;47.92;27.27;;;10.10;99.90;;;;;;5052960;28;20040;-72
2024/03/22 01:20:37;;;;;;;46.38;27.02;;;10.10;99.90;;;;;;5070661;28;20044;-72
2024/03/22 01:23:04;;;;;;;44.15;26.20;;;10.00;99.90;;;;;;5070360;28;20041;-71
2024/03/22 01:25:30;;;;;;;47.00;27.30;;;10.10;99.90;;;;;;5053358;28;20064;-72
2024/03/22 01:27:56;;;;;;;49.60;27.98;;;10.10;99.90;;;;;;5071223;28;20451;-71
2024/03/22 01:30:22;;;;;;;50.83;28.30;;;10.10;99.90;;;;;;5070808;28;20043;-71
2024/03/22 01:32:48;;;;;;;46.85;27.88;;;10.10;99.90;;;;;;5070592;28;20044;-71
2024/03/22 01:35:13;;;;;;;51.15;27.90;;;10.10;99.90;;;;;;5071076;28;20078;-71
2024/03/22 01:37:39;;;;;;;47.17;26.83;;;10.10;99.90;;;;;;5070800;28;20554;-71
2024/03/22 01:40:05;;;;;;;52.33;29.58;;;10.10;99.90;;;;;;5070660;28;20075;-71
2024/03/22 01:42:31;;;;;;;49.95;27.05;;;10.10;99.90;;;;;;5070227;28;20531;-71
2024/03/22 01:44:57;;;;;;;53.97;28.27;;;10.10;99.90;;;;;;5070973;28;20036;-72
2024/03/22 01:47:22;;;;;;;52.28;29.13;;;10.10;99.90;;;;;;5071017;28;20041;-72
2024/03/22 01:49:50;;;;;;;50.65;28.77;;;10.20;99.90;;;;;;5070671;28;20044;-71
2024/03/22 01:52:16;;;;;;;51.33;31.35;;;10.10;99.90;;;;;;5070240;28;20094;-71
2024/03/22 01:54:42;;;;;;;61.15;33.08;;;10.10;99.90;;;;;;5070499;28;20064;-72
2024/03/22 01:57:08;;;;;;;52.10;29.65;;;10.20;99.90;;;;;;5070883;28;20047;-71
2024/03/22 01:59:34;;;;;;;59.17;31.80;;;10.20;99.90;;;;;;5070357;28;20558;-71
2024/03/22 02:02:00;;;;;;;52.15;29.83;;;10.20;99.90;;;;;;5071579;28;20029;-71
2024/03/22 02:04:25;;;;;;;56.63;32.22;;;10.20;99.90;;;;;;5074429;28;20157;-71
2024/03/22 02:06:51;;;;;;;55.38;30.35;;;10.20;99.90;;;;;;5074341;28;20047;-71
2024/03/22 02:09:17;;;;;;;56.25;30.75;;;10.10;99.90;;;;;;5074432;28;20040;-72
2024/03/22 02:11:43;;;;;;;55.00;31.73;;;10.20;99.90;;;;;;5074349;28;20044;-71
2024/03/22 02:14:09;;;;;;;54.55;30.10;;;10.20;99.90;;;;;;5073731;28;20037;-71
2024/03/22 02:16:34;;;;;;;60.33;32.58;;;10.20;99.90;;;;;;5074176;28;20554;-71
2024/03/22 02:19:00;;;;;;;54.90;31.65;;;10.10;99.90;;;;;;5056024;28;20460;-71
2024/03/22 02:21:26;;;;;;;57.40;33.00;;;10.20;99.90;;;;;;5056120;28;20041;-72
2024/03/22 02:23:51;;;;;;;58.03;31.95;;;10.20;99.90;;;;;;5056036;28;20037;-71
2024/03/22 02:26:17;;;;;;;60.13;33.15;;;10.20;99.90;;;;;;5056390;28;20028;-71
2024/03/22 02:28:42;;;;;;;58.13;32.83;;;10.30;99.90;;;;;;5074071;28;20090;-72
2024/03/22 02:31:08;;;;;;;59.63;34.85;;;10.20;99.90;;;;;;5056018;28;20044;-71
2024/03/22 02:33:34;;;;;;;65.15;34.50;;;10.30;99.90;;;;;;5073163;28;20511;-72
2024/03/22 02:35:59;;;;;;;62.83;33.53;;;10.30;99.90;;;;;;5073750;28;20039;-71
2024/03/22 02:38:25;;;;;;;64.63;33.45;;;10.30;99.90;;;;;;5074079;28;20083;-71
2024/03/22 02:40:52;;;;;;;59.67;32.65;;;10.30;99.90;;;;;;5073772;28;20036;-72
2024/03/22 02:43:18;;;;;;;63.47;32.78;;;10.30;99.90;;;;;;5055272;28;20047;-71
2024/03/22 02:45:44;;;;;;;62.80;33.33;;;10.40;99.90;;;;;;5073734;28;20535;-72
2024/03/22 02:48:10;;;;;;;65.53;34.55;;;10.40;99.90;;;;;;5073433;28;20037;-71
2024/03/22 02:50:37;;;;;;;72.60;36.97;;;10.40;99.90;;;;;;5073104;28;20114;-71
2024/03/22 02:53:03;;;;;;;63.55;35.08;;;10.40;99.90;;;;;;5073218;28;20389;-71
2024/03/22 02:55:29;;;;;;;69.70;36.25;;;10.40;99.90;;;;;;5055607;28;20082;-72
2024/03/22 02:57:57;;;;;;;70.07;36.22;;;10.30;99.90;;;;;;5055647;28;20073;-71
2024/03/22 03:00:22;;;;;;;65.55;36.35;;;10.30;99.90;;;;;;5073170;28;20076;-71
2024/03/22 03:02:49;;;;;;;68.90;35.05;;;10.40;99.90;;;;;;5072967;28;20060;-72
2024/03/22 03:05:14;;;;;;;68.28;36.13;;;10.40;99.90;;;;;;5073165;28;20047;-71
2024/03/22 03:07:40;;;;;;;66.65;36.35;;;10.40;99.90;;;;;;5038602;28;20420;-71
2024/03/22 03:10:06;;;;;;;69.38;38.00;;;10.40;99.90;;;;;;5072858;28;20033;-71
2024/03/22 03:12:32;;;;;;;67.35;37.55;;;10.30;99.90;;;;;;5072667;28;20116;-71
2024/03/22 03:14:58;;;;;;;66.20;36.55;;;10.40;99.90;;;;;;5072735;28;20527;-71
2024/03/22 03:17:23;;;;;;;66.50;37.25;;;10.40;99.90;;;;;;5055204;28;20181;-72
2024/03/22 03:19:49;;;;;;;71.20;37.53;;;10.40;99.90;;;;;;5055063;28;20041;-72
2024/03/22 03:22:15;;;;;;;72.32;36.65;;;10.40;99.90;;;;;;5054966;28;20040;-71
2024/03/22 03:24:41;;;;;;;72.72;35.67;;;10.40;99.90;;;;;;5072788;28;20063;-71
2024/03/22 03:27:07;;;;;;;74.22;39.58;;;10.40;99.90;;;;;;5054952;28;20040;-71
2024/03/22 03:29:32;;;;;;;72.40;37.10;;;10.40;99.90;;;;;;5072579;28;20032;-71
2024/03/22 03:31:58;;;;;;;72.70;36.80;;;10.40;99.90;;;;;;5072252;28;20186;-72
2024/03/22 03:34:23;;;;;;;72.60;38.47;;;10.40;99.90;;;;;;5072607;28;20070;-71
2024/03/22 03:36:49;;;;;;;72.32;38.50;;;10.40;99.90;;;;;;5072978;28;20037;-72
2024/03/22 03:39:15;;;;;;;69.07;37.83;;;10.40;99.90;;;;;;5072533;28;20527;-72
2024/03/22 03:41:40;;;;;;;67.18;36.83;;;10.50;99.90;;;;;;5072729;28;20046;-71
2024/03/22 03:44:06;;;;;;;71.47;35.60;;;10.40;99.90;;;;;;5072000;28;20434;-71
2024/03/22 03:46:32;;;;;;;65.65;36.65;;;10.40;99.90;;;;;;5072357;28;20485;-72
2024/03/22 03:48:57;;;;;;;72.45;37.53;;;10.40;99.90;;;;;;5072149;28;20044;-72
2024/03/22 03:51:23;;;;;;;72.65;38.30;;;10.30;99.90;;;;;;5072271;28;20040;-72
2024/03/22 03:53:49;;;;;;;78.10;40.17;;;10.40;99.90;;;;;;5071852;28;20119;-71
2024/03/22 03:56:14;;;;;;;72.32;38.00;;;10.40;99.90;;;;;;5072307;28;20045;-71
2024/03/22 03:58:40;;;;;;;75.13;37.33;;;10.50;99.90;;;;;;5072238;28;20044;-71
2024/03/22 04:01:09;;;;;;;75.60;37.50;;;10.40;99.90;;;;;;5071834;28;20040;-71
2024/03/22 04:03:35;;;;;;;72.90;38.58;;;10.50;99.90;;;;;;5053533;28;20041;-72
2024/03/22 04:06:01;;;;;;;74.20;37.60;;;10.50;99.90;;;;;;5054264;28;20036;-71
2024/03/22 04:08:27;;;;;;;77.38;39.88;;;10.50;99.90;;;;;;5071897;28;20039;-72
2024/03/22 04:10:58;;;;;;;80.40;40.85;;;10.50;99.90;;;;;;5054272;28;20045;-71
2024/03/22 04:13:25;;;;;;;75.50;39.58;;;10.50;99.90;;;;;;5053703;28;20050;-71
2024/03/22 04:15:51;;;;;;;77.57;38.50;;;10.60;99.90;;;;;;5071724;28;20040;-71
2024/03/22 04:18:16;;;;;;;85.38;39.97;;;10.50;99.90;;;;;;5071940;28;20044;-72
2024/03/22 04:20:43;;;;;;;75.28;39.40;;;10.60;99.90;;;;;;5053556;28;20045;-71
2024/03/22 04:23:09;;;;;;;76.78;39.20;;;10.50;99.90;;;;;;5071162;28;20378;-72
2024/03/22 04:25:35;;;;;;;80.88;38.90;;;10.60;99.90;;;;;;5070860;28;20610;-72
2024/03/22 04:28:01;;;;;;;74.80;38.70;;;10.60;99.90;;;;;;5037345;28;20037;-72
2024/03/22 04:30:26;;;;;;;73.25;39.30;;;10.60;99.90;;;;;;5071369;28;20106;-72
2024/03/22 04:32:52;;;;;;;82.55;38.95;;;10.60;99.90;;;;;;5053179;28;20051;-72
2024/03/22 04:35:17;;;;;;;80.10;39.67;;;10.60;99.90;;;;;;5071727;28;20041;-72
2024/03/22 04:37:43;;;;;;;81.32;40.05;;;10.60;99.90;;;;;;5071636;28;20079;-72
2024/03/22 04:40:09;;;;;;;78.53;37.83;;;10.70;99.90;;;;;;5053455;28;20564;-72
2024/03/22 04:42:35;;;;;;;78.00;38.42;;;10.60;99.90;;;;;;5070996;28;20067;-71
2024/03/22 04:45:01;;;;;;;79.47;37.75;;;10.50;99.90;;;;;;5053557;28;20491;-72
2024/03/22 04:47:26;;;;;;;74.40;37.88;;;10.60;99.90;;;;;;5053564;28;20473;-71
2024/03/22 04:49:52;;;;;;;76.60;36.90;;;10.60;99.90;;;;;;5071506;28;20037;-71
2024/03/22 04:52:18;;;;;;;74.88;37.15;;;10.60;99.90;;;;;;5052899;28;20485;-71
2024/03/22 04:54:43;;;;;;;71.15;36.72;;;10.60;99.90;;;;;;5053396;28;20059;-71
2024/03/22 04:57:09;;;;;;;69.28;35.45;;;10.60;99.90;;;;;;5071234;28;20047;-71
2024/03/22 04:59:35;;;;;;;71.40;34.72;;;10.60;99.90;;;;;;5070851;28;20093;-71
2024/03/22 05:02:00;;;;;;;71.75;35.83;;;10.60;99.90;;;;;;5053089;28;20035;-72
2024/03/22 05:04:26;;;;;;;72.60;36.25;;;10.60;99.90;;;;;;5071463;28;20043;-71
2024/03/22 05:06:51;;;;;;;68.00;34.88;;;10.60;99.90;;;;;;5070948;28;20511;-72
2024/03/22 05:09:17;;;;;;;67.28;33.08;;;10.50;99.90;;;;;;5071015;28;20058;-72
2024/03/22 05:11:43;;;;;;;63.97;34.00;;;10.60;99.90;;;;;;5071155;28;20044;-72
2024/03/22 05:14:08;;;;;;;68.25;35.42;;;10.60;99.90;;;;;;5070403;28;20052;-72
2024/03/22 05:16:34;;;;;;;68.32;32.15;;;10.70;99.90;;;;;;5071227;28;20105;-72
2024/03/22 05:18:59;;;;;;;67.47;32.80;;;10.60;99.90;;;;;;5071040;28;20090;-72
2024/03/22 05:21:25;;;;;;;64.85;32.05;;;10.60;99.90;;;;;;5053208;28;20564;-72
2024/03/22 05:23:51;;;;;;;71.50;32.55;;;10.50;99.90;;;;;;5070747;28;20036;-72
2024/03/22 05:26:18;;;;;;;69.53;32.13;;;10.60;99.90;;;;;;5071223;28;20040;-72
2024/03/22 05:28:44;;;;;;;67.22;32.63;;;10.60;99.90;;;;;;5052937;28;20043;-71
2024/03/22 05:31:09;;;;;;;61.58;32.72;;;10.60;99.90;;;;;;5070863;28;20041;-71
2024/03/22 05:33:35;;;;;;;63.85;29.50;;;10.70;99.90;;;;;;5099332;22;20051;-76
2024/03/22 05:36:00;;;;;;;60.22;31.00;;;10.60;99.90;;;;;;5089941;28;20066;-76
2024/03/22 05:38:26;;;;;;;60.67;30.80;;;10.60;99.90;;;;;;5094950;28;20086;-75
2024/03/22 05:40:52;;;;;;;60.40;31.52;;;10.50;99.90;;;;;;5093704;28;20119;-75
2024/03/22 05:43:17;;;;;;;62.45;31.02;;;10.60;99.90;;;;;;5093781;28;20402;-76
2024/03/22 05:45:43;;;;;;;60.38;31.05;;;10.60;99.90;;;;;;5095287;28;20032;-76
2024/03/22 05:48:09;;;;;;;63.47;31.75;;;10.50;99.90;;;;;;5095339;28;20046;-76
2024/03/22 05:50:34;;;;;;;59.35;30.77;;;10.50;99.90;;;;;;5093594;28;20044;-76
2024/03/22 05:53:00;;;;;;;60.17;31.35;;;10.50;99.90;;;;;;5093183;28;20495;-75
2024/03/22 05:55:27;;;;;;;62.33;28.85;;;10.40;99.90;;;;;;5093782;28;20471;-75
2024/03/22 05:57:53;;;;;;;64.22;30.27;;;10.40;99.90;;;;;;5093705;28;20043;-75
2024/03/22 06:00:18;;;;;;;64.90;28.85;;;10.50;99.90;;;;;;5093193;28;20040;-75
2024/03/22 06:02:44;;;;;;;57.38;29.23;;;10.40;99.90;;;;;;5076037;28;20074;-74
2024/03/22 06:05:09;;;;;;;60.60;28.25;;;10.30;99.90;;;;;;5093417;28;20484;-75
2024/03/22 06:07:41;;;;;;;56.42;26.55;;;10.30;99.90;;;;;;5093344;28;20036;-75
2024/03/22 06:10:10;;;;;;;56.38;26.63;;;10.20;99.90;;;;;;5094438;28;20040;-75
2024/03/22 06:12:36;;;;;;;57.95;28.35;;;10.30;99.90;;;;;;5076076;28;20059;-75
2024/03/22 06:15:05;;;;;;;61.38;28.88;;;10.40;99.90;;;;;;5094497;28;20036;-76
2024/03/22 06:17:33;;;;;;;51.28;25.88;;;10.20;99.90;;;;;;5093368;28;20043;-76
2024/03/22 06:19:59;;;;;;;52.90;27.85;;;10.10;99.90;;;;;;5093095;28;20174;-75
2024/03/22 06:22:25;;;;;;;63.47;29.67;;;10.30;99.90;;;;;;5092756;28;20040;-76
2024/03/22 06:24:50;;;;;;;57.92;28.60;;;10.30;99.90;;;;;;5094241;28;20032;-75
2024/03/22 06:27:16;;;;;;;55.33;28.00;;;10.20;99.90;;;;;;5076239;28;20101;-76
2024/03/22 06:29:42;;;;;;;46.65;25.17;;;10.20;99.90;;;;;;5094386;28;20115;-76
2024/03/22 06:32:07;;;;;;;55.28;26.85;;;10.10;99.90;;;;;;5092742;28;20411;-76
2024/03/22 06:34:33;;;;;;;57.58;28.35;;;10.30;99.90;;;;;;5094306;28;20044;-76
2024/03/22 06:36:59;;;;;;;57.20;28.50;;;10.20;99.90;;;;;;5093465;28;20418;-75
2024/03/22 06:39:24;;;;;;;53.45;27.75;;;10.10;99.90;;;;;;5093800;28;20119;-76
2024/03/22 06:41:50;;;;;;;54.20;26.48;;;10.10;99.90;;;;;;5092924;28;20032;-76
2024/03/22 06:44:15;;;;;;;52.97;28.00;;;10.10;99.90;;;;;;5094252;28;20040;-76
2024/03/22 06:46:41;;;;;;;63.63;28.60;;;10.10;99.90;;;;;;5093261;28;20043;-75
2024/03/22 06:49:07;;;;;;;50.42;26.73;;;10.10;99.90;;;;;;5091058;28;20127;-76
2024/03/22 06:51:32;;;;;;;59.15;27.58;;;10.20;99.90;;;;;;5093785;28;20086;-76
2024/03/22 06:53:58;;;;;;;62.08;28.38;;;10.10;99.90;;;;;;5092235;28;20105;-78
2024/03/22 06:56:23;;;;;;;50.22;26.40;;;10.10;99.90;;;;;;5093366;28;20496;-75
2024/03/22 06:58:49;;;;;;;62.40;27.58;;;10.20;99.90;;;;;;5092833;28;20036;-75
2024/03/22 07:01:15;;;;;;;51.22;25.67;;;10.20;99.90;;;;;;5092487;28;20059;-75
2024/03/22 07:03:45;;;;;;;54.25;25.95;;;10.10;99.90;;;;;;5093311;28;20484;-75
2024/03/22 07:06:11;;;;;;;61.92;26.15;;;10.20;99.90;;;;;;5093943;28;20435;-76
2024/03/22 07:08:36;;;;;;;52.58;24.92;;;10.10;99.90;;;;;;5093445;28;20043;-75
2024/03/22 07:11:06;;;;;;;52.70;26.58;;;10.10;99.90;;;;;;5093488;28;20557;-75
2024/03/22 07:13:32;;;;;;;52.55;25.40;;;10.20;99.90;;;;;;5092143;28;20044;-75
2024/03/22 07:15:57;;;;;;;46.80;24.55;;;10.00;99.90;;;;;;5092362;28;20043;-75
2024/03/22 07:18:23;;;;;;;54.72;25.00;;;10.10;99.90;;;;;;5093610;28;20086;-74
2024/03/22 07:20:49;;;;;;;47.78;23.60;;;10.20;99.90;;;;;;5093344;28;20032;-76
2024/03/22 07:23:14;;;;;;;50.03;23.65;;;10.10;99.90;;;;;;5091567;28;20028;-75
2024/03/22 07:25:42;;;;;;;50.42;22.33;;;10.10;99.90;;;;;;5092255;28;20081;-75
2024/03/22 07:28:08;;;;;;;47.00;23.95;;;10.10;99.90;;;;;;5092179;28;20115;-75
2024/03/22 07:30:35;;;;;;;49.53;22.08;;;10.10;99.90;;;;;;5092154;28;20147;-75
2024/03/22 07:33:01;;;;;;;49.35;21.23;;;10.20;99.90;;;;;;5091465;28;20050;-75
2024/03/22 07:35:26;;;;;;;41.45;21.15;;;10.10;99.90;;;;;;5091980;28;20131;-75
2024/03/22 07:37:52;;;;;;;42.38;19.65;;;10.20;99.90;;;;;;5075023;28;20044;-75
2024/03/22 07:40:18;;;;;;;44.47;21.17;;;10.10;99.90;;;;;;5091546;28;20036;-75
2024/03/22 07:42:43;;;;;;;46.00;20.05;;;10.20;99.90;;;;;;5091324;28;20038;-75
2024/03/22 07:45:10;;;;;;;37.78;20.00;;;10.00;99.90;;;;;;5093236;28;20119;-75
2024/03/22 07:47:35;;;;;;;43.92;20.67;;;10.10;99.90;;;;;;5093231;28;20648;-75
2024/03/22 07:50:01;;;;;;;40.90;19.70;;;10.10;99.90;;;;;;5091569;28;20036;-75
2024/03/22 07:52:27;;;;;;;46.22;19.08;;;10.20;99.90;;;;;;5092458;28;20040;-75
2024/03/22 07:54:52;;;;;;;43.00;18.80;;;10.10;99.90;;;;;;5093102;28;20115;-75
2024/03/22 07:57:18;;;;;;;47.00;19.20;;;10.20;99.90;;;;;;5091611;28;20040;-75
2024/03/22 07:59:44;;;;;;;41.97;19.10;;;10.10;99.90;;;;;;5091133;28;20126;-76
2024/03/22 08:02:10;;;;;;;40.42;19.05;;;10.20;99.90;;;;;;5092649;28;20402;-75
2024/03/22 08:04:35;;;;;;;41.45;19.05;;;10.20;99.90;;;;;;5074904;28;20537;-75
2024/03/22 08:07:01;;;;;;;38.38;18.60;;;10.30;99.90;;;;;;5091854;28;20086;-75
2024/03/22 08:09:26;;;;;;;41.40;18.52;;;10.00;99.90;;;;;;5092464;28;20042;-75
2024/03/22 08:11:52;;;;;;;34.85;19.00;;;10.20;99.90;;;;;;5091208;28;20032;-74
2024/03/22 08:14:18;;;;;;;40.75;19.08;;;10.10;99.90;;;;;;5092765;28;20039;-75
2024/03/22 08:16:43;;;;;;;39.40;21.02;;;10.30;99.90;;;;;;5074362;28;20036;-75
2024/03/22 08:19:09;;;;;;;39.45;18.38;;;10.20;99.90;;;;;;5092293;28;20032;-74
2024/03/22 08:21:36;;;;;;;36.05;17.38;;;10.30;99.90;;;;;;5091061;28;20522;-75
2024/03/22 08:24:02;;;;;;;36.55;19.00;;;10.10;99.90;;;;;;5090904;28;20064;-76
2024/03/22 08:26:27;;;;;;;46.30;19.98;;;10.30;99.90;;;;;;5092201;28;20533;-76
2024/03/22 08:28:53;;;;;;;38.53;19.45;;;10.10;99.90;;;;;;5090903;28;20072;-75
2024/03/22 08:31:25;;;;;;;36.75;18.42;;;10.10;99.90;;;;;;5091101;28;20097;-75
2024/03/22 08:33:51;;;;;;;40.22;17.98;;;10.20;99.90;;;;;;5090451;28;20054;-73
2024/03/22 08:36:16;;;;;;;33.58;17.73;;;10.10;99.90;;;;;;5090863;28;20043;-75
2024/03/22 08:38:42;;;;;;;35.72;17.23;;;10.30;99.90;;;;;;5090910;28;20447;-74
2024/03/22 08:41:08;;;;;;;39.42;18.23;;;10.20;99.90;;;;;;5090515;28;20040;-75
2024/03/22 08:43:33;;;;;;;35.75;16.33;;;10.30;99.90;;;;;;5090257;28;20044;-75
2024/03/22 08:45:59;;;;;;;33.90;16.63;;;10.40;99.90;;;;;;5090821;28;20124;-74
2024/03/22 08:48:24;;;;;;;30.35;15.13;;;10.20;99.90;;;;;;5090734;28;20053;-74
2024/03/22 08:50:50;;;;;;;31.52;14.88;;;10.40;99.90;;;;;;5090394;28;20462;-74
2024/03/22 08:53:16;;;;;;;29.83;13.35;;;10.20;99.90;;;;;;5090098;28;20059;-73
2024/03/22 08:55:46;;;;;;;30.70;15.27;;;10.40;99.90;;;;;;5090592;28;20089;-74
2024/03/22 08:58:17;;;;;;;25.60;13.23;;;10.30;99.90;;;;;;5090599;28;20412;-74
2024/03/22 09:00:43;;;;;;;29.90;13.60;;;10.40;99.90;;;;;;5090261;28;20087;-74
2024/03/22 09:03:09;;;;;;;26.17;14.02;;;10.30;99.90;;;;;;5073082;28;20044;-74
2024/03/22 09:05:35;;;;;;;26.08;12.75;;;10.30;99.90;;;;;;5090684;28;20062;-74
2024/03/22 09:08:00;;;;;;;28.52;13.02;;;10.30;99.90;;;;;;5090504;28;20636;-75
2024/03/22 09:10:26;;;;;;;24.73;13.45;;;10.20;99.90;;;;;;5082788;28;20040;-72
2024/03/22 09:12:52;;;;;;;22.40;11.45;;;10.30;99.90;;;;;;5081854;28;20036;-72
2024/03/22 09:15:18;;;;;;;23.55;11.60;;;10.30;99.90;;;;;;5082555;28;20028;-72
2024/03/22 09:17:43;;;;;;;23.42;11.52;;;10.30;99.90;;;;;;5083052;28;20047;-72
2024/03/22 09:20:10;;;;;;;19.40;10.52;;;10.30;99.90;;;;;;5090006;28;20050;-72
2024/03/22 09:22:35;;;;;;;20.52;10.60;;;10.40;99.90;;;;;;5089721;28;20044;-73
2024/03/22 09:25:01;;;;;;;15.30;9.55;;;10.40;99.90;;;;;;5081626;28;20067;-73
2024/03/22 09:27:26;;;;;;;15.80;8.50;;;10.50;99.90;;;;;;5090334;28;20070;-73
2024/03/22 09:29:52;;;;;;;14.00;8.98;;;10.40;99.90;;;;;;5090067;28;20108;-73
2024/03/22 09:32:18;;;;;;;15.70;8.20;;;10.30;99.90;;;;;;5091087;28;20044;-73
2024/03/22 09:34:44;;;;;;;13.23;7.85;;;10.30;99.90;;;;;;5090006;28;20062;-73
2024/03/22 09:37:09;;;;;;;16.98;8.45;;;10.40;99.90;;;;;;5090283;28;20066;-73
2024/03/22 09:39:35;;;;;;;13.02;8.52;;;10.50;99.90;;;;;;5089817;28;20090;-75
2024/03/22 09:42:05;;;;;;;14.65;7.88;;;10.50;99.90;;;;;;5089966;28;20043;-73
2024/03/22 09:44:32;;;;;;;16.20;8.48;;;10.50;99.90;;;;;;5090091;28;20028;-74
2024/03/22 09:46:59;;;;;;;14.50;8.43;;;10.40;99.90;;;;;;5090348;28;20063;-74
2024/03/22 09:49:25;;;;;;;10.38;7.18;;;10.40;99.90;;;;;;5089893;28;20043;-74
2024/03/22 09:51:52;;;;;;;12.55;7.70;;;10.40;99.90;;;;;;5089943;28;20040;-73
2024/03/22 09:54:18;;;;;;;12.68;7.88;;;10.50;99.90;;;;;;5090044;28;20068;-74
2024/03/22 09:56:45;;;;;;;14.70;6.85;;;10.30;99.90;;;;;;5091648;28;20129;-74
2024/03/22 09:59:11;;;;;;;14.35;8.32;;;10.40;99.90;;;;;;5091170;28;20403;-74
2024/03/22 10:01:39;;;;;;;11.75;7.20;;;10.30;99.90;;;;;;5089773;28;20036;-74
2024/03/22 10:04:05;;;;;;;13.30;7.30;;;10.40;99.90;;;;;;5089426;28;20162;-74
2024/03/22 10:06:31;;;;;;;13.27;7.22;;;10.30;99.90;;;;;;5072973;28;20057;-74
2024/03/22 10:09:00;;;;;;;12.32;7.45;;;10.40;99.90;;;;;;5085405;28;20140;-74
2024/03/22 10:11:27;;;;;;;11.65;7.47;;;10.50;99.90;;;;;;5090049;28;20079;-74
2024/03/22 10:13:54;;;;;;;10.85;6.95;;;10.50;99.90;;;;;;5089871;28;20438;-74
2024/03/22 10:16:21;;;;;;;13.90;7.18;;;10.40;99.90;;;;;;5091103;28;20043;-74
2024/03/22 10:18:48;;;;;;;9.38;6.20;;;10.30;99.90;;;;;;5091328;28;20513;-74
2024/03/22 10:21:18;;;;;;;13.95;6.47;;;10.50;99.90;;;;;;5089864;28;20089;-74
2024/03/22 10:23:44;;;;;;;10.70;6.60;;;10.50;99.90;;;;;;5090182;28;20028;-74
2024/03/22 10:26:10;;;;;;;11.20;6.15;;;10.50;99.90;;;;;;5076477;28;20036;-74
2024/03/22 10:28:36;;;;;;;10.05;5.97;;;10.40;99.90;;;;;;5076480;28;20044;-74
2024/03/22 10:31:02;;;;;;;10.73;6.28;;;10.30;99.90;;;;;;5076520;28;20399;-74
2024/03/22 10:33:29;;;;;;;8.93;6.05;;;10.50;99.90;;;;;;5076414;28;20101;-74
2024/03/22 10:35:56;;;;;;;7.50;5.28;;;10.40;99.90;;;;;;5093584;28;20047;-76
2024/03/22 10:38:22;;;;;;;9.27;6.07;;;10.40;99.90;;;;;;5093434;28;20385;-75
2024/03/22 10:40:48;;;;;;;8.02;4.95;;;10.50;99.90;;;;;;5093019;28;20036;-74
2024/03/22 10:43:14;;;;;;;11.02;5.82;;;10.60;99.90;;;;;;5092497;28;20036;-75
2024/03/22 10:45:41;;;;;;;9.02;5.53;;;10.60;99.90;;;;;;5093325;28;20039;-78
2024/03/22 10:48:10;;;;;;;8.63;5.63;;;10.50;99.90;;;;;;5094491;28;20095;-74
2024/03/22 10:50:42;;;;;;;9.35;5.32;;;10.70;99.90;;;;;;5093968;28;20048;-74
2024/03/22 10:53:19;;;;;;;8.20;4.68;;;10.50;99.90;;;;;;5093920;28;20105;-74
2024/03/22 10:55:47;;;;;;;8.65;4.75;;;10.70;99.90;;;;;;5075818;28;20548;-74
2024/03/22 10:58:31;;;;;;;7.68;4.70;;;10.60;99.90;;;;;;5076185;28;20040;-75
2024/03/22 11:00:57;;;;;;;7.35;4.82;;;10.60;99.90;;;;;;5092538;28;20561;-76
2024/03/22 11:03:25;;;;;;;7.20;4.05;;;10.60;99.90;;;;;;5093703;28;20040;-76
2024/03/22 11:05:54;;;;;;;9.77;4.18;;;10.60;99.90;;;;;;5092847;28;20544;-76
2024/03/22 11:08:24;;;;;;;7.88;3.85;;;10.80;99.90;;;;;;5092495;28;20043;-76
2024/03/22 11:10:50;;;;;;;6.63;3.67;;;10.60;99.90;;;;;;5092557;28;20509;-75
2024/03/22 11:13:17;;;;;;;6.82;3.63;;;10.70;99.90;;;;;;5091941;28;20131;-75
2024/03/22 11:15:43;;;;;;;7.15;3.30;;;10.70;99.90;;;;;;5092514;28;20081;-75
2024/03/22 11:18:09;;;;;;;5.85;3.63;;;10.70;99.90;;;;;;5092723;28;20395;-76
2024/03/22 11:20:37;;;;;;;4.57;3.05;;;10.60;99.90;;;;;;5093530;28;20123;-77
2024/03/22 11:23:06;;;;;;;5.25;3.50;;;10.70;99.90;;;;;;5092919;28;20055;-75
2024/03/22 11:25:33;;;;;;;5.68;2.85;;;10.70;99.90;;;;;;5092346;28;20036;-76
2024/03/22 11:28:00;;;;;;;6.47;4.03;;;10.80;99.90;;;;;;5092262;28;20032;-76
2024/03/22 11:30:27;;;;;;;4.65;3.40;;;10.70;99.90;;;;;;5075159;28;20055;-75
2024/03/22 11:32:54;;;;;;;4.40;2.83;;;10.80;99.90;;;;;;5091689;28;20040;-76
2024/03/22 11:35:19;;;;;;;4.18;2.83;;;10.80;99.90;;;;;;5080751;22;20102;-73
2024/03/22 11:37:45;;;;;;;3.58;2.22;;;10.70;99.90;;;;;;5088689;28;20045;-70
2024/03/22 11:40:12;;;;;;;3.30;2.35;;;10.90;99.90;;;;;;5072556;28;20484;-71
2024/03/22 11:42:41;;;;;;;3.83;2.10;;;10.70;99.90;;;;;;5072734;28;20037;-70
2024/03/22 11:45:09;;;;;;;2.38;1.58;;;10.80;99.90;;;;;;5072755;28;20037;-70
2024/03/22 11:47:35;;;;;;;5.45;2.88;;;10.90;99.90;;;;;;5072762;28;20047;-70
2024/03/22 11:50:02;;;;;;;5.93;2.67;;;10.80;99.90;;;;;;5072380;28;20040;-71
2024/03/22 11:52:29;;;;;;;3.85;2.80;;;10.90;99.90;;;;;;5072244;28;20094;-70
2024/03/22 11:54:54;;;;;;;5.88;2.50;;;10.80;99.90;;;;;;5068315;28;20044;-70
2024/03/22 11:57:23;;;;;;;4.88;2.00;;;10.80;99.90;;;;;;5070917;28;20043;-70
2024/03/22 11:59:50;;;;;;;2.45;2.08;;;10.80;99.90;;;;;;5071851;28;20037;-70
2024/03/22 12:02:16;;;;;;;1.85;1.10;;;10.80;99.90;;;;;;5069487;28;20047;-70
2024/03/22 12:04:44;;;;;;;2.72;1.05;;;10.70;99.90;;;;;;5066086;28;20032;-71
2024/03/22 12:07:19;;;;;;;4.07;1.95;;;10.60;99.90;;;;;;5072408;28;20041;-70
2024/03/22 12:09:45;;;;;;;3.13;1.85;;;10.80;99.90;;;;;;5072148;28;20033;-71
2024/03/22 12:12:12;;;;;;;6.53;1.60;;;10.80;99.90;;;;;;5071808;28;20041;-70
2024/03/22 12:14:41;;;;;;;1.75;1.35;;;10.70;99.90;;;;;;5072113;28;20085;-69
2024/03/22 12:17:07;;;;;;;2.83;1.63;;;10.70;99.90;;;;;;5072023;28;20048;-70
2024/03/22 12:19:33;;;;;;;3.33;1.83;;;10.60;99.90;;;;;;5072390;28;20032;-71
2024/03/22 12:21:59;;;;;;;2.78;1.55;;;10.60;99.90;;;;;;5071501;28;20039;-76
2024/03/22 12:24:26;;;;;;;4.57;1.85;;;10.60;99.90;;;;;;5053945;28;20070;-73